Shiprock, NM

3:40 PM MDT on July 24, 2014 (GMT -0600)
Four Corners Regional (KFMN) Elev 5502 ft | 36.74 °N, 108.23 °W | Change Station

Current weather conditions updated 47 minutes ago

Clear
Clear
90 °F
Feels Like 90 °F
N
9
Wind Variable Wind from West

Today is forecast to be Much Cooler than yesterday.

Today
High -- | Low -- °F
--% Chance of Precip.
Yesterday
High -- | Low -- °F
Precip. -- in
6:14 AM 8:27 PM
Waning Crescent, 4% visible
Pressure 29.95 in
Visibility 10.0 miles
Clouds Clear
Dew Point 45 °F
Humidity 21%
Rainfall 0.00 in
Snow Depth Not available.
UV 11 out of 12
Pollen 3.10 out of 12
Air Quality Not available.
Flu Activity Not available.
METAR KFMN 242053Z 26008KT 10SM CLR 32/07 A3017 RMK AO2 SLP140 T03220072 58024

More Conditions Fewer Conditions

Pressure 29.95 in
Visibility 10.0 miles
Clouds Clear
Dew Point 45 °F
Humidity 21%
Rainfall 0.00 in
Snow Depth Not available.
UV 11 out of 12
Pollen 3.10 out of 12
Air Quality Not available.
Flu Activity Not available.
METAR KFMN 242053Z 26008KT 10SM CLR 32/07 A3017 RMK AO2 SLP140 T03220072 58024

More Conditions Fewer Conditions

Nowcast | as of 2:20 PM MDT on July 24, 2014

Through 430 PM...isolated showers and thunderstorms will develop over portions of San Juan County. Showers and storms will move northeastward at 10 mph. Thunderstorms will be capable of producing a tenth of an inch of rain...wind gusts to 30 mph and occasional cloud to ground lightning. Most of the activity should be found from Sanostee to Farmington.

×

10-Day Weather Forecast

Almanac

Astronomy

Jul. 24, 2014 Rise Set
Actual Time 6:14 AM MDT 8:27 PM MDT
Civil Twilight 5:45 AM MDT 8:56 PM MDT
Nautical Twilight 5:09 AM MDT 9:31 PM MDT
Astronomical Twilight 4:30 AM MDT 10:10 PM MDT
Moon 4:24 AM MDT 6:45 PM MDT
Length of Visible Light 15h 10m
Length of Day
14h 12m
Tomorrow will be 1m 31s shorter.
Waning Crescent, 4% of the Moon is Illuminated
Today
Waning Crescent
Jul 26
New
Aug 3
First Quarter
Aug 10
Full
Aug 17
Last Quarter

Today's Extremes

State Highs State Lows

Community

WunderPhotos

Upload Photos

1,737,139 photos uploaded!

WunderBlogs® & News

Nearby

Snow Depth

Station Depth Elevation
North Costilla 0 in 10600 ft
Tolby 0 in 10180 ft
Silver Creek Divide 0 in 9000 ft

Earthquake Activity

City Distance Mag. Time & Date
No recent earthquake activity has been reported nearby.
Minimum magnitude displayed is 2.5.

Coastal Water Temperatures

Place Temperature
No Stations Reporting

Nearby Weather Stations

There are no personal weather stations in this area.